Weather reports worldwide

Advertisment
Menorca Airport, Spain (2008314): temperature & dewpoint: 08.12.2017 21:00:00 - 14.12.2017 21:00:00 (CET)Menorca Airport, Spain (2008314): wind speed: 08.12.2017 21:00:00 - 14.12.2017 21:00:00 (CET)Menorca Airport, Spain (2008314): wind direction: 08.12.2017 21:00:00 - 14.12.2017 21:00:00 (CET)Menorca Airport, Spain (2008314): visibility: 08.12.2017 21:00:00 - 14.12.2017 21:00:00 (CET)
Date & Time tt [°C] td [°C] ff [km/h] ff [kn] dd vv [km]
14.12.2017 21:00:00 14,0 11,0 24 13 W 10
14.12.2017 20:00:00 13,0 10,0 18 10 W 10
14.12.2017 19:00:00 14,0 10,0 22 12 W 10
14.12.2017 18:00:00 14,0 11,0 24 13 WSW 10
14.12.2017 17:00:00 15,0 11,0 18 10 WSW 10
14.12.2017 16:00:00 16,0 11,0 16 9 WSW 10
14.12.2017 15:00:00 18,0 11,0 13 7 SW 10
14.12.2017 14:00:00 18,0 10,0 11 6 WSW 10
14.12.2017 13:00:00 19,0 10,0 11 6 W 10
14.12.2017 12:00:00 18,0 10,0 16 9 WSW 10
14.12.2017 11:00:00 17,0 9,0 18 10 WSW 10
14.12.2017 10:00:00 17,0 10,0 21 11 W 10
14.12.2017 09:00:00 14,0 8,0 22 12 WSW 10
14.12.2017 08:00:00 13,0 8,0 26 14 WSW 10
14.12.2017 07:00:00 13,0 8,0 22 12 W 10
14.12.2017 06:00:00 13,0 7,0 29 16 WSW 10
14.12.2017 05:00:00 13,0 8,0 26 14 WSW 8
14.12.2017 04:00:00 13,0 7,0 24 13 WSW 8
14.12.2017 03:00:00 13,0 7,0 26 14 W 9
14.12.2017 02:00:00 13,0 7,0 29 16 W 8
14.12.2017 01:00:00 13,0 8,0 26 14 W 8
14.12.2017 00:00:00 13,0 7,0 29 16 W 9
13.12.2017 23:00:00 13,0 6,0 26 14 W 9
13.12.2017 22:00:00 12,0 6,0 29 16 WSW 10
13.12.2017 21:00:00 12,0 6,0 22 12 WSW 10
13.12.2017 20:00:00 12,0 5,0 29 16 WSW 10
13.12.2017 19:00:00 12,0 5,0 22 12 WSW 10
13.12.2017 18:00:00 12,0 5,0 24 13 WSW 10
13.12.2017 17:00:00 12,0 5,0 21 11 WSW 10
13.12.2017 16:00:00 12,0 3,0 21 11 W 10
13.12.2017 15:00:00 13,0 4,0 18 10 WSW 10
13.12.2017 14:00:00 15,0 6,0 16 9 W 10
13.12.2017 13:00:00 16,0 5,0 21 11 W 10
13.12.2017 12:00:00 16,0 5,0 21 11 W 10
13.12.2017 11:00:00 15,0 5,0 16 9 WSW 10
13.12.2017 10:00:00 15,0 2,0 2 1 - 10
13.12.2017 09:00:00 10,0 3,0 0 0 N 10
13.12.2017 08:00:00 4,0 1,0 9 5 N 10
13.12.2017 07:00:00 4,0 2,0 13 7 N 10
13.12.2017 06:00:00 4,0 1,0 13 7 N 10
13.12.2017 05:00:00 4,0 2,0 9 5 N 8
13.12.2017 04:00:00 5,0 3,0 15 8 N 8
13.12.2017 03:00:00 6,0 4,0 15 8 N 8
13.12.2017 02:00:00 7,0 4,0 15 8 NNE 8
13.12.2017 01:00:00 8,0 5,0 16 9 N 10
13.12.2017 00:00:00 8,0 5,0 16 9 N 10
12.12.2017 23:00:00 8,0 5,0 24 13 NNE 9
12.12.2017 22:00:00 8,0 6,0 29 16 NNE 10
12.12.2017 21:00:00 8,0 8,0 24 13 N 10
12.12.2017 20:00:00 9,0 9,0 13 7 N 10
12.12.2017 19:00:00 10,0 8,0 15 8 NNE 10
12.12.2017 18:00:00 10,0 8,0 11 6 N 10
12.12.2017 17:00:00 12,0 9,0 16 9 NNE 10
12.12.2017 16:00:00 13,0 8,0 5 3 NW 10
12.12.2017 15:00:00 13,0 8,0 15 8 N 10
12.12.2017 14:00:00 13,0 8,0 16 9 N 10
12.12.2017 13:00:00 13,0 9,0 15 8 NNW 10
12.12.2017 12:00:00 14,0 10,0 2 1 - 10
12.12.2017 11:00:00 11,0 10,0 13 7 NNW 10
12.12.2017 10:00:00 12,0 9,0 2 1 NNW 10
12.12.2017 09:00:00 10,0 7,0 4 2 NW 10
12.12.2017 08:00:00 10,0 7,0 4 2 N 10
12.12.2017 07:00:00 9,0 7,0 0 0 N 10
12.12.2017 06:00:00 9,0 7,0 0 0 N 10
12.12.2017 05:00:00 10,0 8,0 0 0 N 10
12.12.2017 04:00:00 9,0 7,0 2 1 NW 10
12.12.2017 03:00:00 9,0 7,0 5 3 WNW 10
12.12.2017 02:00:00 11,0 7,0 5 3 W 10
12.12.2017 01:00:00 12,0 8,0 5 3 W 10
12.12.2017 00:00:00 13,0 8,0 21 11 W 10
11.12.2017 23:00:00 13,0 7,0 22 12 W 10
11.12.2017 22:00:00 13,0 8,0 22 12 W 10
11.12.2017 21:00:00 13,0 8,0 28 15 W 10
11.12.2017 20:00:00 14,0 8,0 34 18 WSW 10
11.12.2017 19:00:00 14,0 10,0 29 16 WSW 10
11.12.2017 18:00:00 14,0 10,0 31 17 WSW 10
11.12.2017 17:00:00 14,0 10,0 29 16 WSW 10
11.12.2017 16:00:00 13,0 12,0 42 23 WSW 6
11.12.2017 15:00:00 18,0 12,0 41 22 SSW 10
11.12.2017 14:00:00 18,0 12,0 46 25 SW 10
11.12.2017 13:00:00 17,0 12,0 46 25 SSW 10
11.12.2017 12:00:00 17,0 13,0 42 23 SW 10
11.12.2017 11:00:00 17,0 13,0 50 27 SW 8
11.12.2017 10:00:00 17,0 13,0 46 25 SW 8
11.12.2017 09:00:00 17,0 13,0 46 25 SW 7
11.12.2017 08:00:00 16,0 13,0 39 21 SW 7
11.12.2017 07:00:00 16,0 13,0 41 22 SW 6
11.12.2017 06:00:00 16,0 12,0 41 22 SW 7
11.12.2017 05:00:00 - - - - - -
11.12.2017 04:00:00 - - - - - -
11.12.2017 03:00:00 - - - - - -
11.12.2017 02:00:00 - - - - - -
11.12.2017 01:00:00 - - - - - -
11.12.2017 00:00:00 - - - - - -
10.12.2017 23:00:00 16,0 13,0 34 18 SW 5
10.12.2017 22:00:00 16,0 13,0 39 21 SW 10
10.12.2017 21:00:00 16,0 13,0 39 21 SW 10
10.12.2017 20:00:00 16,0 13,0 37 20 SW 10
10.12.2017 19:00:00 16,0 13,0 34 18 WSW 10
10.12.2017 18:00:00 16,0 10,0 34 18 WSW 10
10.12.2017 17:00:00 16,0 10,0 29 16 WSW 10
10.12.2017 16:00:00 16,0 11,0 31 17 WSW 10
10.12.2017 15:00:00 17,0 11,0 29 16 SW 10
10.12.2017 14:00:00 17,0 12,0 29 16 WSW 10
10.12.2017 13:00:00 17,0 12,0 31 17 WSW 10
10.12.2017 12:00:00 16,0 12,0 26 14 WSW 10
10.12.2017 11:00:00 17,0 13,0 24 13 WSW 10
10.12.2017 10:00:00 16,0 14,0 26 14 WSW 10
10.12.2017 09:00:00 16,0 13,0 28 15 WSW 10
10.12.2017 08:00:00 15,0 13,0 29 16 SW 10
10.12.2017 07:00:00 15,0 11,0 26 14 WSW 10
10.12.2017 06:00:00 14,0 10,0 24 13 WSW 10
10.12.2017 05:00:00 14,0 9,0 28 15 WSW 10
10.12.2017 04:00:00 13,0 9,0 21 11 SW 10
10.12.2017 03:00:00 12,0 7,0 22 12 SW 10
10.12.2017 02:00:00 12,0 6,0 22 12 SW 10
10.12.2017 01:00:00 11,0 5,0 15 8 SW 10
10.12.2017 00:00:00 9,0 4,0 4 2 - 10
09.12.2017 23:00:00 7,0 2,0 0 0 N 10
09.12.2017 22:00:00 8,0 2,0 0 0 N 10
09.12.2017 21:00:00 7,0 3,0 0 0 N 10
09.12.2017 20:00:00 7,0 2,0 0 0 N 10
09.12.2017 19:00:00 8,0 3,0 4 2 - 10
09.12.2017 18:00:00 9,0 2,0 9 5 NNE 10
09.12.2017 17:00:00 9,0 3,0 15 8 NNE 10
09.12.2017 16:00:00 10,0 3,0 21 11 NNE 10
09.12.2017 15:00:00 10,0 3,0 26 14 NNE 10
09.12.2017 14:00:00 10,0 5,0 24 13 NNE 10
09.12.2017 13:00:00 9,0 5,0 28 15 NNE 10
09.12.2017 12:00:00 9,0 4,0 29 16 NNE 10
09.12.2017 11:00:00 9,0 5,0 28 15 NE 10
09.12.2017 10:00:00 8,0 6,0 24 13 NNE 8
09.12.2017 09:00:00 8,0 6,0 35 19 NE 7
09.12.2017 08:00:00 8,0 6,0 28 15 NNE 7
09.12.2017 07:00:00 9,0 7,0 16 9 NNE 8
09.12.2017 06:00:00 9,0 7,0 18 10 NNE 6
09.12.2017 05:00:00 10,0 8,0 22 12 NE 10
09.12.2017 04:00:00 11,0 7,0 15 8 NE 10
09.12.2017 03:00:00 11,0 6,0 15 8 NE 10
09.12.2017 02:00:00 12,0 5,0 21 11 NNE 10
09.12.2017 01:00:00 12,0 6,0 21 11 NNE 10
09.12.2017 00:00:00 12,0 6,0 18 10 NNE 10
08.12.2017 23:00:00 12,0 6,0 18 10 NE 10
08.12.2017 22:00:00 12,0 7,0 22 12 NNE 10
08.12.2017 21:00:00 12,0 9,0 24 13 NNE 10

tt = temperature
td = dewpoint
ff = wind speed
dd = wind direction
vv = visibility

Next stations